Memphis, TN

6:59 AM CST on December 20, 2014 (GMT -0600)
Midtown Memphis (OEM) | Change Station
CLOSE
Current Station
Personal Weather Station
Location: Memphis, TN
Elevation: 320 ft
Nearby Weather Stations

Elev 320 ft 35.13 °N, 89.97 °W | Updated 29 minutes ago

Overcast
Overcast
39.0 °F
Feels Like 39 °F
N
3.0
Wind Variable Wind from NE
Gusts 16.0 mph

Today
High -- | Low -- °F
--% Chance of Precip.
Yesterday
High -- | Low -- °F
Precip. -- in
7:03 AM 4:51 PM
Waning Crescent, 3% visible
Pressure 30.27 in
Visibility 7.0 miles
Clouds Overcast 6000 ft
Windchill 39 °F
Dew Point 34 °F
Humidity 83%
Rainfall 0.00 in
Snow Depth Not available.
UV 0 out of 12
Pollen .10 out of 12
Air Quality Not available.
Flu Activity Not available.
METAR KMEM 201254Z 07004KT 7SM OVC060 04/00 A3027 RMK AO2 SLP250 T00390000 $

More Conditions Fewer Conditions

Pressure 30.27 in
Visibility 7.0 miles
Clouds Overcast 6000 ft
Windchill 39 °F
Dew Point 34 °F
Humidity 83%
Rainfall 0.00 in
Snow Depth Not available.
UV 0 out of 12
Pollen .10 out of 12
Air Quality Not available.
Flu Activity Not available.
METAR KMEM 201254Z 07004KT 7SM OVC060 04/00 A3027 RMK AO2 SLP250 T00390000 $

More Conditions Fewer Conditions

10-Day Weather Forecast

Almanac

Astronomy

Dec. 20, 2014 Rise Set
Actual Time
Civil Twilight
Nautical Twilight
Astronomical Twilight
Moon
Length of Visible Light
Length of Day
Tomorrow will be .
, % of the Moon is Illuminated

Today's Extremes

State Highs State Lows

Community

WunderPhotos

Upload Photos

1,779,163 photos uploaded!

WunderBlogs® & News

Nearby

Air Quality

  Air Quality AQ Index Pollutant
Not available.

Snow Depth

Station Depth Elevation

Earthquake Activity

City Distance Mag. Time & Date
Minimum magnitude displayed is 2.5.

Coastal Water Temperatures

Place Temperature

Nearby Weather Stations